Aeroporto :
LOGIN :

Iscrizione | Disclaimer

   EN    FR    IT 

 










Sommario :    VFR   VFR Marginale   IFR   IFR Intensivo   IFR Molto Intensivo
Visibilità : 
Base nubi : 
>= 8 km
>= 3000ft
5 / 8 km
1000 / 3000 ft
1500m / 5 km
500 / 1000 ft
800 / 1500m
200 / 500 ft
< 800m
< 200 ft
Simboli :   Temporali  Nebbia  Neve Forte  Precipitazioni Forti  Vento > 20 kt
SIGMETs :   Varie  Temporali  Ghiacco  Turbolenza  Onda orograficha  Ceneri Vulcaniche







- Altitudine del aeroporto : 302 ft
- Codice IATA : CGN


EDDK - Cologne Bonn

ULTIMO METAR :
  • 211820Z VRB01KT 9999 FEW027 BKN038 10/06 Q1028 NOSIG

METARs OBSOLETI :
  • 211750Z VRB01KT 9999 BKN042 10/06 Q1028 NOSIG
  • 211720Z VRB01KT 9999 BKN047 11/06 Q1028 NOSIG
  • 211650Z 34003KT 310V020 9999 BKN047 11/06 Q1028 NOSIG
  • 211620Z 29003KT 9999 BKN047 12/06 Q1027 NOSIG
  • 211550Z 30004KT 9999 FEW029 BKN040 12/06 Q1027 NOSIG

TAF TAF EDDK
Valido dal 21 a 18 ore il 23 a 00 ore UTC


211700Z 2118/2224 33005KT 9999 BKN040
BECMG 2121/2124 BKN012
BECMG 2201/2204 4000 BR BKN007
PROB30
TEMPO 2202/2209 1900 -DZRA OVC004
TEMPO 2209/2212 6000 BKN012
BECMG 2212/2215 05005KT 9999 BKN025
BECMG 2220/2224 11005KT
Nessun NOTAM noto per questo aeroporto.



MetMap, La meteo Aeronautica in un colpo d'occhio ! - Copyright ORBIFLY Dicembre 2007 - Disclaimer

ORBIFLY MET'MAP TEAM :

Programmazione e sviluppo : Alexandra Zaïnal
Concezione e sviluppo : Baudouin d'Aumeries
Co-Programmazione e sviluppo : Marc-Olivier Méhu
Supporto tecnico e logistico : Manuel Goepfert
Aiuto per la traduzione : Arnaldo La Scala

Contatto : metmap@orbifly.com




FONTI E CREDITI :

   NOAA